sensor_id;sensor_type;location;lat;lon;timestamp;pressure;altitude;pressure_sealevel;temperature;humidity
69570;BME280;56781;42.292;23.146;2023-08-30T00:01:32;94632.06;;;17.91;100.00
69570;BME280;56781;42.292;23.146;2023-08-30T00:04:00;94637.91;;;17.93;100.00
69570;BME280;56781;42.292;23.146;2023-08-30T00:06:27;94639.88;;;17.96;100.00
69570;BME280;56781;42.292;23.146;2023-08-30T00:08:54;94641.84;;;17.99;100.00
69570;BME280;56781;42.292;23.146;2023-08-30T00:11:23;94639.41;;;17.90;100.00
69570;BME280;56781;42.292;23.146;2023-08-30T00:13:51;94629.06;;;17.69;100.00
69570;BME280;56781;42.292;23.146;2023-08-30T00:16:18;94644.69;;;17.80;100.00
69570;BME280;56781;42.292;23.146;2023-08-30T00:18:45;94649.16;;;17.68;100.00
69570;BME280;56781;42.292;23.146;2023-08-30T00:21:12;94645.94;;;17.59;100.00
69570;BME280;56781;42.292;23.146;2023-08-30T00:23:39;94647.59;;;17.67;100.00
69570;BME280;56781;42.292;23.146;2023-08-30T00:26:06;94635.28;;;17.70;100.00
69570;BME280;56781;42.292;23.146;2023-08-30T00:28:34;94626.97;;;17.86;100.00
69570;BME280;56781;42.292;23.146;2023-08-30T00:31:01;94625.28;;;17.78;100.00
69570;BME280;56781;42.292;23.146;2023-08-30T00:33:28;94639.38;;;17.87;100.00
69570;BME280;56781;42.292;23.146;2023-08-30T00:35:59;94627.00;;;17.59;100.00
69570;BME280;56781;42.292;23.146;2023-08-30T00:38:27;94630.56;;;17.67;100.00
69570;BME280;56781;42.292;23.146;2023-08-30T00:40:55;94644.69;;;17.80;100.00
69570;BME280;56781;42.292;23.146;2023-08-30T00:43:22;94652.81;;;17.80;100.00
69570;BME280;56781;42.292;23.146;2023-08-30T00:45:49;94628.88;;;17.55;100.00
69570;BME280;56781;42.292;23.146;2023-08-30T00:48:17;94631.75;;;17.39;100.00
69570;BME280;56781;42.292;23.146;2023-08-30T00:50:46;94642.94;;;17.38;100.00
69570;BME280;56781;42.292;23.146;2023-08-30T00:53:14;94646.44;;;17.38;100.00
69570;BME280;56781;42.292;23.146;2023-08-30T00:55:42;94651.84;;;17.38;100.00
69570;BME280;56781;42.292;23.146;2023-08-30T00:58:10;94664.38;;;17.50;100.00
69570;BME280;56781;42.292;23.146;2023-08-30T01:00:38;94649.75;;;17.28;100.00
69570;BME280;56781;42.292;23.146;2023-08-30T01:03:06;94644.84;;;17.11;100.00
69570;BME280;56781;42.292;23.146;2023-08-30T01:05:34;94662.69;;;17.15;100.00
69570;BME280;56781;42.292;23.146;2023-08-30T01:08:02;94650.56;;;17.05;100.00
69570;BME280;56781;42.292;23.146;2023-08-30T01:11:08;94658.31;;;17.07;100.00
69570;BME280;56781;42.292;23.146;2023-08-30T01:13:46;94656.44;;;17.11;100.00
69570;BME280;56781;42.292;23.146;2023-08-30T01:16:15;94651.47;;;17.13;100.00
69570;BME280;56781;42.292;23.146;2023-08-30T01:18:44;94677.47;;;17.21;100.00
69570;BME280;56781;42.292;23.146;2023-08-30T01:21:21;94650.41;;;16.95;100.00
69570;BME280;56781;42.292;23.146;2023-08-30T01:23:58;94654.19;;;16.90;100.00
69570;BME280;56781;42.292;23.146;2023-08-30T01:26:44;94653.53;;;16.97;100.00
69570;BME280;56781;42.292;23.146;2023-08-30T01:29:12;94657.59;;;16.87;100.00
69570;BME280;56781;42.292;23.146;2023-08-30T01:31:41;94649.38;;;16.80;100.00
69570;BME280;56781;42.292;23.146;2023-08-30T01:34:10;94662.81;;;16.76;100.00
69570;BME280;56781;42.292;23.146;2023-08-30T01:36:37;94652.44;;;16.78;100.00
69570;BME280;56781;42.292;23.146;2023-08-30T01:39:05;94662.09;;;16.79;100.00
69570;BME280;56781;42.292;23.146;2023-08-30T01:41:35;94674.22;;;16.86;100.00
69570;BME280;56781;42.292;23.146;2023-08-30T01:44:05;94668.81;;;16.86;100.00
69570;BME280;56781;42.292;23.146;2023-08-30T01:46:33;94655.28;;;16.66;100.00
69570;BME280;56781;42.292;23.146;2023-08-30T01:49:03;94664.59;;;16.46;100.00
69570;BME280;56781;42.292;23.146;2023-08-30T01:51:31;94658.19;;;16.54;100.00
69570;BME280;56781;42.292;23.146;2023-08-30T01:54:00;94672.94;;;16.60;100.00
69570;BME280;56781;42.292;23.146;2023-08-30T01:56:27;94659.09;;;16.61;100.00
69570;BME280;56781;42.292;23.146;2023-08-30T01:58:54;94661.50;;;16.67;100.00
69570;BME280;56781;42.292;23.146;2023-08-30T02:01:22;94677.19;;;16.61;100.00
69570;BME280;56781;42.292;23.146;2023-08-30T02:03:49;94659.28;;;16.53;100.00
69570;BME280;56781;42.292;23.146;2023-08-30T02:06:26;94655.56;;;16.61;100.00
69570;BME280;56781;42.292;23.146;2023-08-30T02:09:13;94662.00;;;16.53;100.00
69570;BME280;56781;42.292;23.146;2023-08-30T02:11:44;94674.97;;;16.44;100.00
69570;BME280;56781;42.292;23.146;2023-08-30T02:14:12;94663.31;;;16.20;100.00
69570;BME280;56781;42.292;23.146;2023-08-30T02:16:43;94653.25;;;16.17;100.00
69570;BME280;56781;42.292;23.146;2023-08-30T02:19:12;94655.16;;;16.16;100.00
69570;BME280;56781;42.292;23.146;2023-08-30T02:21:43;94653.72;;;16.23;100.00
69570;BME280;56781;42.292;23.146;2023-08-30T02:24:11;94653.84;;;16.07;100.00
69570;BME280;56781;42.292;23.146;2023-08-30T02:26:38;94671.00;;;15.99;100.00
69570;BME280;56781;42.292;23.146;2023-08-30T02:29:05;94657.72;;;15.90;100.00
69570;BME280;56781;42.292;23.146;2023-08-30T02:31:32;94676.66;;;15.74;100.00
69570;BME280;56781;42.292;23.146;2023-08-30T02:34:00;94678.59;;;15.58;100.00
69570;BME280;56781;42.292;23.146;2023-08-30T02:36:27;94669.81;;;15.61;100.00
69570;BME280;56781;42.292;23.146;2023-08-30T02:38:54;94648.63;;;15.43;100.00
69570;BME280;56781;42.292;23.146;2023-08-30T02:41:21;94646.94;;;15.55;100.00
69570;BME280;56781;42.292;23.146;2023-08-30T02:43:48;94657.72;;;15.55;100.00
69570;BME280;56781;42.292;23.146;2023-08-30T02:46:16;94678.59;;;15.58;100.00
69570;BME280;56781;42.292;23.146;2023-08-30T02:48:43;94672.78;;;15.56;100.00
69570;BME280;56781;42.292;23.146;2023-08-30T02:51:10;94653.56;;;15.41;100.00
69570;BME280;56781;42.292;23.146;2023-08-30T02:53:37;94650.06;;;15.57;100.00
69570;BME280;56781;42.292;23.146;2023-08-30T02:56:04;94661.03;;;15.64;100.00
69570;BME280;56781;42.292;23.146;2023-08-30T02:58:31;94662.81;;;15.76;100.00
69570;BME280;56781;42.292;23.146;2023-08-30T03:01:01;94658.91;;;15.73;100.00
69570;BME280;56781;42.292;23.146;2023-08-30T03:03:29;94652.38;;;15.74;100.00
69570;BME280;56781;42.292;23.146;2023-08-30T03:05:56;94660.13;;;15.76;100.00
69570;BME280;56781;42.292;23.146;2023-08-30T03:08:24;94662.50;;;15.77;100.00
69570;BME280;56781;42.292;23.146;2023-08-30T03:10:51;94665.59;;;15.63;100.00
69570;BME280;56781;42.292;23.146;2023-08-30T03:13:18;94663.22;;;15.58;100.00
69570;BME280;56781;42.292;23.146;2023-08-30T03:15:45;94649.66;;;15.39;100.00
69570;BME280;56781;42.292;23.146;2023-08-30T03:18:12;94665.53;;;15.24;100.00
69570;BME280;56781;42.292;23.146;2023-08-30T03:20:39;94652.66;;;15.34;100.00
69570;BME280;56781;42.292;23.146;2023-08-30T03:23:07;94655.50;;;15.41;100.00
69570;BME280;56781;42.292;23.146;2023-08-30T03:25:34;94642.09;;;15.44;100.00
69570;BME280;56781;42.292;23.146;2023-08-30T03:28:01;94651.81;;;15.49;100.00
69570;BME280;56781;42.292;23.146;2023-08-30T03:30:30;94652.78;;;15.41;100.00
69570;BME280;56781;42.292;23.146;2023-08-30T03:32:57;94653.63;;;15.25;100.00
69570;BME280;56781;42.292;23.146;2023-08-30T03:35:25;94637.75;;;15.04;100.00
69570;BME280;56781;42.292;23.146;2023-08-30T03:37:52;94637.38;;;15.06;100.00
69570;BME280;56781;42.292;23.146;2023-08-30T03:40:19;94641.78;;;15.14;100.00
69570;BME280;56781;42.292;23.146;2023-08-30T03:42:46;94648.38;;;15.33;100.00
69570;BME280;56781;42.292;23.146;2023-08-30T03:45:13;94646.97;;;15.39;100.00
69570;BME280;56781;42.292;23.146;2023-08-30T03:47:40;94658.66;;;15.62;100.00
69570;BME280;56781;42.292;23.146;2023-08-30T03:50:07;94653.63;;;15.61;100.00
69570;BME280;56781;42.292;23.146;2023-08-30T03:52:36;94665.47;;;15.56;100.00
69570;BME280;56781;42.292;23.146;2023-08-30T03:55:03;94678.25;;;15.75;100.00
69570;BME280;56781;42.292;23.146;2023-08-30T03:57:30;94692.84;;;15.74;100.00
69570;BME280;56781;42.292;23.146;2023-08-30T03:59:57;94692.16;;;15.77;100.00
69570;BME280;56781;42.292;23.146;2023-08-30T04:02:25;94694.16;;;15.80;100.00
69570;BME280;56781;42.292;23.146;2023-08-30T04:04:52;94705.41;;;16.02;100.00
69570;BME280;56781;42.292;23.146;2023-08-30T04:07:19;94696.16;;;16.03;100.00
69570;BME280;56781;42.292;23.146;2023-08-30T04:09:46;94707.41;;;16.05;100.00
69570;BME280;56781;42.292;23.146;2023-08-30T04:12:13;94712.25;;;16.15;100.00
69570;BME280;56781;42.292;23.146;2023-08-30T04:14:41;94734.53;;;16.12;100.00
69570;BME280;56781;42.292;23.146;2023-08-30T04:17:08;94727.28;;;15.97;100.00
69570;BME280;56781;42.292;23.146;2023-08-30T04:19:35;94742.84;;;16.03;100.00
69570;BME280;56781;42.292;23.146;2023-08-30T04:22:02;94740.63;;;16.09;100.00
69570;BME280;56781;42.292;23.146;2023-08-30T04:24:30;94726.03;;;16.10;100.00
69570;BME280;56781;42.292;23.146;2023-08-30T04:26:57;94730.28;;;16.11;100.00
69570;BME280;56781;42.292;23.146;2023-08-30T04:29:24;94739.25;;;16.15;100.00
69570;BME280;56781;42.292;23.146;2023-08-30T04:31:51;94726.28;;;16.05;100.00
69570;BME280;56781;42.292;23.146;2023-08-30T04:34:18;94732.75;;;16.00;100.00
69570;BME280;56781;42.292;23.146;2023-08-30T04:36:45;94750.31;;;16.10;100.00
69570;BME280;56781;42.292;23.146;2023-08-30T04:39:13;94729.78;;;16.05;100.00
69570;BME280;56781;42.292;23.146;2023-08-30T04:41:40;94731.63;;;16.21;100.00
69570;BME280;56781;42.292;23.146;2023-08-30T04:44:07;94740.09;;;16.38;100.00
69570;BME280;56781;42.292;23.146;2023-08-30T04:46:35;94751.59;;;16.55;100.00
69570;BME280;56781;42.292;23.146;2023-08-30T04:49:02;94728.28;;;16.47;100.00
69570;BME280;56781;42.292;23.146;2023-08-30T04:51:29;94746.69;;;16.60;100.00
69570;BME280;56781;42.292;23.146;2023-08-30T04:53:56;94735.25;;;16.67;100.00
69570;BME280;56781;42.292;23.146;2023-08-30T04:56:24;94748.75;;;16.87;100.00
69570;BME280;56781;42.292;23.146;2023-08-30T04:58:51;94748.47;;;16.92;100.00
69570;BME280;56781;42.292;23.146;2023-08-30T05:01:18;94743.34;;;17.10;100.00
69570;BME280;56781;42.292;23.146;2023-08-30T05:03:46;94735.97;;;17.30;100.00
69570;BME280;56781;42.292;23.146;2023-08-30T05:06:13;94741.72;;;17.51;100.00
69570;BME280;56781;42.292;23.146;2023-08-30T05:08:44;94750.56;;;17.75;100.00
69570;BME280;56781;42.292;23.146;2023-08-30T05:11:11;94743.53;;;17.97;100.00
69570;BME280;56781;42.292;23.146;2023-08-30T05:13:38;94739.28;;;17.96;100.00
69570;BME280;56781;42.292;23.146;2023-08-30T05:16:05;94735.84;;;18.29;100.00
69570;BME280;56781;42.292;23.146;2023-08-30T05:18:33;94734.69;;;18.60;100.00
69570;BME280;56781;42.292;23.146;2023-08-30T05:21:00;94751.56;;;18.80;100.00
69570;BME280;56781;42.292;23.146;2023-08-30T05:23:30;94732.88;;;19.09;100.00
69570;BME280;56781;42.292;23.146;2023-08-30T05:25:58;94749.81;;;19.39;100.00
69570;BME280;56781;42.292;23.146;2023-08-30T05:28:28;94743.00;;;19.60;100.00
69570;BME280;56781;42.292;23.146;2023-08-30T05:30:55;94735.25;;;19.62;100.00
69570;BME280;56781;42.292;23.146;2023-08-30T05:33:25;94735.38;;;19.76;100.00
69570;BME280;56781;42.292;23.146;2023-08-30T05:35:52;94712.91;;;19.86;100.00
69570;BME280;56781;42.292;23.146;2023-08-30T05:38:19;94744.06;;;20.00;100.00
69570;BME280;56781;42.292;23.146;2023-08-30T05:40:46;94747.59;;;20.07;100.00
69570;BME280;56781;42.292;23.146;2023-08-30T05:43:14;94741.69;;;19.95;100.00
69570;BME280;56781;42.292;23.146;2023-08-30T05:45:42;94740.31;;;20.29;100.00
69570;BME280;56781;42.292;23.146;2023-08-30T05:48:09;94747.00;;;20.46;100.00
69570;BME280;56781;42.292;23.146;2023-08-30T05:50:37;94767.38;;;20.77;100.00
69570;BME280;56781;42.292;23.146;2023-08-30T05:53:04;94744.44;;;20.78;100.00
69570;BME280;56781;42.292;23.146;2023-08-30T05:55:31;94737.47;;;20.85;100.00
69570;BME280;56781;42.292;23.146;2023-08-30T05:57:58;94743.72;;;20.96;100.00
69570;BME280;56781;42.292;23.146;2023-08-30T06:00:25;94751.47;;;20.97;100.00
69570;BME280;56781;42.292;23.146;2023-08-30T06:02:52;94751.06;;;20.92;100.00
69570;BME280;56781;42.292;23.146;2023-08-30T06:19:27;94777.66;;;21.59;100.00
69570;BME280;56781;42.292;23.146;2023-08-30T06:21:54;94779.97;;;21.50;100.00
69570;BME280;56781;42.292;23.146;2023-08-30T06:24:21;94772.56;;;21.58;100.00
69570;BME280;56781;42.292;23.146;2023-08-30T06:26:49;94768.66;;;21.87;100.00
69570;BME280;56781;42.292;23.146;2023-08-30T06:29:16;94766.72;;;21.99;99.94
69570;BME280;56781;42.292;23.146;2023-08-30T06:31:43;94762.00;;;22.35;100.00
69570;BME280;56781;42.292;23.146;2023-08-30T06:34:12;94760.50;;;21.95;99.04
69570;BME280;56781;42.292;23.146;2023-08-30T06:36:39;94752.75;;;21.50;100.00
69570;BME280;56781;42.292;23.146;2023-08-30T06:39:06;94769.81;;;21.25;100.00
69570;BME280;56781;42.292;23.146;2023-08-30T06:41:33;94757.34;;;21.24;100.00
69570;BME280;56781;42.292;23.146;2023-08-30T07:07:52;94775.28;;;21.43;100.00
69570;BME280;56781;42.292;23.146;2023-08-30T07:10:19;94778.34;;;21.20;100.00
69570;BME280;56781;42.292;23.146;2023-08-30T07:12:46;94779.88;;;21.07;100.00
69570;BME280;56781;42.292;23.146;2023-08-30T07:15:15;94779.88;;;21.03;100.00
69570;BME280;56781;42.292;23.146;2023-08-30T07:17:43;94771.28;;;20.98;100.00
69570;BME280;56781;42.292;23.146;2023-08-30T07:20:13;94782.22;;;21.16;100.00
69570;BME280;56781;42.292;23.146;2023-08-30T07:22:40;94778.72;;;21.19;100.00
69570;BME280;56781;42.292;23.146;2023-08-30T07:25:08;94776.41;;;21.24;100.00
69570;BME280;56781;42.292;23.146;2023-08-30T07:27:37;94773.72;;;21.32;100.00
69570;BME280;56781;42.292;23.146;2023-08-30T07:30:04;94755.00;;;21.16;100.00
69570;BME280;56781;42.292;23.146;2023-08-30T07:32:31;94763.56;;;21.14;100.00
69570;BME280;56781;42.292;23.146;2023-08-30T07:34:58;94769.78;;;21.11;100.00
69570;BME280;56781;42.292;23.146;2023-08-30T07:37:26;94771.38;;;21.34;100.00
69570;BME280;56781;42.292;23.146;2023-08-30T07:39:53;94766.38;;;21.72;100.00
69570;BME280;56781;42.292;23.146;2023-08-30T07:42:20;94744.13;;;22.12;99.50
69570;BME280;56781;42.292;23.146;2023-08-30T07:44:47;94769.78;;;22.33;100.00
69570;BME280;56781;42.292;23.146;2023-08-30T07:47:15;94771.38;;;22.34;100.00
69570;BME280;56781;42.292;23.146;2023-08-30T07:49:45;94784.56;;;22.53;100.00
69570;BME280;56781;42.292;23.146;2023-08-30T07:52:12;94757.03;;;23.63;95.68
69570;BME280;56781;42.292;23.146;2023-08-30T07:54:40;94750.06;;;24.03;91.44
69570;BME280;56781;42.292;23.146;2023-08-30T07:57:08;94764.31;;;24.63;86.17
69570;BME280;56781;42.292;23.146;2023-08-30T07:59:35;94748.31;;;24.92;85.09
69570;BME280;56781;42.292;23.146;2023-08-30T08:02:04;94762.66;;;24.69;86.57
69570;BME280;56781;42.292;23.146;2023-08-30T08:04:34;94773.66;;;23.86;85.96
69570;BME280;56781;42.292;23.146;2023-08-30T08:07:02;94781.25;;;24.09;88.29
69570;BME280;56781;42.292;23.146;2023-08-30T08:09:31;94776.19;;;24.84;84.58
69570;BME280;56781;42.292;23.146;2023-08-30T08:11:59;94773.59;;;24.73;85.08
69570;BME280;56781;42.292;23.146;2023-08-30T08:14:26;94780.81;;;24.56;83.88
69570;BME280;56781;42.292;23.146;2023-08-30T08:16:53;94773.91;;;24.44;83.84
69570;BME280;56781;42.292;23.146;2023-08-30T08:19:20;94777.72;;;24.54;82.81
69570;BME280;56781;42.292;23.146;2023-08-30T08:21:51;94771.38;;;24.61;79.32
69570;BME280;56781;42.292;23.146;2023-08-30T08:24:21;94764.91;;;25.09;77.59
69570;BME280;56781;42.292;23.146;2023-08-30T08:26:48;94766.09;;;25.08;79.51
69570;BME280;56781;42.292;23.146;2023-08-30T08:29:15;94773.53;;;24.76;77.96
69570;BME280;56781;42.292;23.146;2023-08-30T08:31:42;94767.25;;;24.45;79.78
69570;BME280;56781;42.292;23.146;2023-08-30T08:34:10;94760.63;;;24.01;80.17
69570;BME280;56781;42.292;23.146;2023-08-30T08:36:38;94768.88;;;23.98;81.00
69570;BME280;56781;42.292;23.146;2023-08-30T08:39:06;94761.22;;;23.82;78.88
69570;BME280;56781;42.292;23.146;2023-08-30T08:41:43;94776.28;;;24.01;81.02
69570;BME280;56781;42.292;23.146;2023-08-30T08:44:12;94758.81;;;23.87;83.05
69570;BME280;56781;42.292;23.146;2023-08-30T08:46:40;94763.38;;;24.01;79.59
69570;BME280;56781;42.292;23.146;2023-08-30T08:49:12;94766.22;;;24.28;79.13
69570;BME280;56781;42.292;23.146;2023-08-30T08:51:41;94761.63;;;24.22;79.88
69570;BME280;56781;42.292;23.146;2023-08-30T08:54:10;94758.06;;;24.25;80.18
69570;BME280;56781;42.292;23.146;2023-08-30T08:56:38;94761.50;;;24.70;77.31
69570;BME280;56781;42.292;23.146;2023-08-30T08:59:06;94760.44;;;24.91;78.41
69570;BME280;56781;42.292;23.146;2023-08-30T09:01:36;94766.06;;;25.11;74.92
69570;BME280;56781;42.292;23.146;2023-08-30T09:04:09;94764.28;;;25.28;78.01
69570;BME280;56781;42.292;23.146;2023-08-30T09:06:38;94758.97;;;25.14;75.83
69570;BME280;56781;42.292;23.146;2023-08-30T09:09:10;94758.25;;;25.64;74.82
69570;BME280;56781;42.292;23.146;2023-08-30T09:11:41;94742.84;;;25.97;73.08
69570;BME280;56781;42.292;23.146;2023-08-30T09:14:18;94741.00;;;26.14;71.57
69570;BME280;56781;42.292;23.146;2023-08-30T09:16:56;94726.19;;;26.08;68.75
69570;BME280;56781;42.292;23.146;2023-08-30T09:19:24;94726.25;;;26.04;72.39
69570;BME280;56781;42.292;23.146;2023-08-30T09:21:55;94737.78;;;25.96;69.89
69570;BME280;56781;42.292;23.146;2023-08-30T09:24:23;94732.59;;;26.01;69.91
69570;BME280;56781;42.292;23.146;2023-08-30T09:26:53;94722.19;;;26.13;67.49
69570;BME280;56781;42.292;23.146;2023-08-30T09:29:21;94716.78;;;26.09;64.62
69570;BME280;56781;42.292;23.146;2023-08-30T09:31:51;94716.97;;;25.98;67.53
69570;BME280;56781;42.292;23.146;2023-08-30T09:34:27;94696.56;;;25.76;67.83
69570;BME280;56781;42.292;23.146;2023-08-30T09:36:54;94725.56;;;26.00;65.90
69570;BME280;56781;42.292;23.146;2023-08-30T09:39:22;94707.22;;;26.17;69.16
69570;BME280;56781;42.292;23.146;2023-08-30T09:41:50;94732.56;;;26.25;67.73
69570;BME280;56781;42.292;23.146;2023-08-30T09:44:19;94726.72;;;26.43;68.25
69570;BME280;56781;42.292;23.146;2023-08-30T09:46:53;94697.28;;;26.43;63.13
69570;BME280;56781;42.292;23.146;2023-08-30T09:49:26;94716.69;;;26.56;63.28
69570;BME280;56781;42.292;23.146;2023-08-30T09:51:54;94714.47;;;26.47;61.29
69570;BME280;56781;42.292;23.146;2023-08-30T09:54:23;94709.22;;;26.57;62.73
69570;BME280;56781;42.292;23.146;2023-08-30T09:56:54;94704.63;;;26.70;57.22
69570;BME280;56781;42.292;23.146;2023-08-30T09:59:23;94696.66;;;26.75;58.03
69570;BME280;56781;42.292;23.146;2023-08-30T10:01:51;94693.84;;;26.79;61.85
69570;BME280;56781;42.292;23.146;2023-08-30T10:04:20;94701.19;;;26.66;63.09
69570;BME280;56781;42.292;23.146;2023-08-30T10:06:47;94696.19;;;26.61;61.75
69570;BME280;56781;42.292;23.146;2023-08-30T10:09:15;94700.19;;;26.76;64.21
69570;BME280;56781;42.292;23.146;2023-08-30T10:11:46;94689.06;;;27.00;60.94
69570;BME280;56781;42.292;23.146;2023-08-30T10:14:14;94692.81;;;26.89;59.58
69570;BME280;56781;42.292;23.146;2023-08-30T10:16:48;94673.59;;;26.89;58.25
69570;BME280;56781;42.292;23.146;2023-08-30T10:19:27;94682.91;;;26.95;58.40
69570;BME280;56781;42.292;23.146;2023-08-30T10:22:01;94675.69;;;27.02;60.91
69570;BME280;56781;42.292;23.146;2023-08-30T10:24:39;94676.41;;;27.22;57.81
69570;BME280;56781;42.292;23.146;2023-08-30T10:27:28;94668.63;;;27.21;59.67
69570;BME280;56781;42.292;23.146;2023-08-30T10:29:59;94668.84;;;27.10;60.80
69570;BME280;56781;42.292;23.146;2023-08-30T10:32:28;94665.81;;;26.68;61.30
69570;BME280;56781;42.292;23.146;2023-08-30T10:34:55;94674.97;;;26.81;57.63
69570;BME280;56781;42.292;23.146;2023-08-30T10:37:23;94673.06;;;26.78;60.31
69570;BME280;56781;42.292;23.146;2023-08-30T10:39:50;94657.28;;;26.82;59.08
69570;BME280;56781;42.292;23.146;2023-08-30T10:42:22;94663.78;;;27.25;57.04
69570;BME280;56781;42.292;23.146;2023-08-30T10:44:49;94665.88;;;27.37;57.16
69570;BME280;56781;42.292;23.146;2023-08-30T10:47:38;94665.00;;;27.56;51.95
69570;BME280;56781;42.292;23.146;2023-08-30T10:50:10;94650.72;;;27.61;51.71
69570;BME280;56781;42.292;23.146;2023-08-30T10:52:39;94633.94;;;27.89;52.65
69570;BME280;56781;42.292;23.146;2023-08-30T10:55:08;94634.66;;;28.05;49.46
69570;BME280;56781;42.292;23.146;2023-08-30T10:57:36;94644.84;;;28.21;47.57
69570;BME280;56781;42.292;23.146;2023-08-30T11:02:46;94633.50;;;27.90;48.36
69570;BME280;56781;42.292;23.146;2023-08-30T11:05:25;94638.13;;;28.22;43.58
69570;BME280;56781;42.292;23.146;2023-08-30T11:07:53;94627.66;;;28.17;43.87
69570;BME280;56781;42.292;23.146;2023-08-30T11:10:21;94631.16;;;28.47;45.76
69570;BME280;56781;42.292;23.146;2023-08-30T11:12:49;94644.75;;;28.67;46.17
69570;BME280;56781;42.292;23.146;2023-08-30T11:15:17;94645.31;;;28.75;49.78
69570;BME280;56781;42.292;23.146;2023-08-30T11:17:45;94639.97;;;28.55;50.77
69570;BME280;56781;42.292;23.146;2023-08-30T11:20:14;94620.19;;;28.31;49.99
69570;BME280;56781;42.292;23.146;2023-08-30T11:22:43;94609.47;;;28.20;45.90
69570;BME280;56781;42.292;23.146;2023-08-30T11:25:13;94594.38;;;28.12;51.28
69570;BME280;56781;42.292;23.146;2023-08-30T11:27:40;94623.25;;;28.49;47.08
69570;BME280;56781;42.292;23.146;2023-08-30T11:30:09;94613.22;;;28.55;44.67
69570;BME280;56781;42.292;23.146;2023-08-30T11:32:38;94619.19;;;28.79;41.69
69570;BME280;56781;42.292;23.146;2023-08-30T11:35:06;94614.69;;;28.85;43.53
69570;BME280;56781;42.292;23.146;2023-08-30T11:37:33;94627.56;;;29.01;43.25
69570;BME280;56781;42.292;23.146;2023-08-30T11:40:04;94608.94;;;28.80;41.79
69570;BME280;56781;42.292;23.146;2023-08-30T11:57:33;94595.84;;;28.97;41.92
69570;BME280;56781;42.292;23.146;2023-08-30T12:00:11;94592.19;;;28.87;36.88
69570;BME280;56781;42.292;23.146;2023-08-30T12:02:40;94599.47;;;29.06;36.00
69570;BME280;56781;42.292;23.146;2023-08-30T12:05:11;94595.38;;;28.98;37.80
69570;BME280;56781;42.292;23.146;2023-08-30T12:07:39;94592.94;;;29.00;35.90
69570;BME280;56781;42.292;23.146;2023-08-30T12:10:08;94594.28;;;29.08;38.60
69570;BME280;56781;42.292;23.146;2023-08-30T12:12:36;94591.06;;;29.23;36.03
69570;BME280;56781;42.292;23.146;2023-08-30T12:15:10;94584.25;;;29.14;34.57
69570;BME280;56781;42.292;23.146;2023-08-30T12:17:38;94595.94;;;29.19;35.19
69570;BME280;56781;42.292;23.146;2023-08-30T12:20:06;94575.75;;;29.09;34.63
69570;BME280;56781;42.292;23.146;2023-08-30T12:22:39;94574.13;;;28.86;38.92
69570;BME280;56781;42.292;23.146;2023-08-30T12:25:20;94585.34;;;28.79;38.10
69570;BME280;56781;42.292;23.146;2023-08-30T12:41:13;94563.69;;;29.41;37.34
69570;BME280;56781;42.292;23.146;2023-08-30T12:43:40;94564.25;;;29.36;31.57
69570;BME280;56781;42.292;23.146;2023-08-30T12:46:07;94549.63;;;29.26;31.54
69570;BME280;56781;42.292;23.146;2023-08-30T12:48:34;94552.38;;;29.26;31.04
69570;BME280;56781;42.292;23.146;2023-08-30T12:51:02;94568.22;;;29.35;31.83
69570;BME280;56781;42.292;23.146;2023-08-30T12:53:30;94556.31;;;29.25;30.30
69570;BME280;56781;42.292;23.146;2023-08-30T12:55:57;94564.56;;;29.38;30.95
69570;BME280;56781;42.292;23.146;2023-08-30T12:58:24;94566.50;;;29.15;30.17
69570;BME280;56781;42.292;23.146;2023-08-30T13:00:51;94569.81;;;29.10;30.35
69570;BME280;56781;42.292;23.146;2023-08-30T13:03:19;94560.31;;;29.11;30.00
69570;BME280;56781;42.292;23.146;2023-08-30T13:05:46;94563.97;;;29.08;29.57
69570;BME280;56781;42.292;23.146;2023-08-30T13:08:13;94571.03;;;29.09;30.20
69570;BME280;56781;42.292;23.146;2023-08-30T13:10:40;94547.00;;;28.97;29.08
69570;BME280;56781;42.292;23.146;2023-08-30T13:13:08;94557.69;;;29.21;28.82
69570;BME280;56781;42.292;23.146;2023-08-30T13:15:35;94537.50;;;29.24;29.30
69570;BME280;56781;42.292;23.146;2023-08-30T13:18:03;94545.31;;;29.12;28.19
69570;BME280;56781;42.292;23.146;2023-08-30T13:20:30;94551.97;;;28.77;30.24
69570;BME280;56781;42.292;23.146;2023-08-30T13:22:57;94564.31;;;28.46;31.35
69570;BME280;56781;42.292;23.146;2023-08-30T13:25:24;94548.09;;;28.23;31.61
69570;BME280;56781;42.292;23.146;2023-08-30T13:27:52;94564.97;;;27.96;35.21
69570;BME280;56781;42.292;23.146;2023-08-30T13:30:19;94546.88;;;28.37;32.73
69570;BME280;56781;42.292;23.146;2023-08-30T13:32:46;94548.34;;;28.54;32.16
69570;BME280;56781;42.292;23.146;2023-08-30T13:35:14;94565.94;;;28.44;33.43
69570;BME280;56781;42.292;23.146;2023-08-30T13:37:41;94549.78;;;28.59;31.82
69570;BME280;56781;42.292;23.146;2023-08-30T13:40:08;94545.69;;;28.63;33.19
69570;BME280;56781;42.292;23.146;2023-08-30T13:42:36;94554.72;;;28.77;33.09
69570;BME280;56781;42.292;23.146;2023-08-30T13:45:03;94554.06;;;28.72;34.54
69570;BME280;56781;42.292;23.146;2023-08-30T13:47:32;94546.69;;;28.57;35.10
69570;BME280;56781;42.292;23.146;2023-08-30T13:50:00;94561.63;;;28.30;34.19
69570;BME280;56781;42.292;23.146;2023-08-30T13:52:27;94563.94;;;28.32;34.18
69570;BME280;56781;42.292;23.146;2023-08-30T13:54:57;94563.25;;;28.27;34.66
69570;BME280;56781;42.292;23.146;2023-08-30T13:57:24;94556.81;;;28.47;32.44
69570;BME280;56781;42.292;23.146;2023-08-30T13:59:51;94564.19;;;28.63;33.52
69570;BME280;56781;42.292;23.146;2023-08-30T14:02:18;94558.25;;;28.64;33.26